Terminal Aerodrome Forecast
Issued by NWS

Home | Current Version | Previous Version | Text Only | Print | Product List | Glossary On
Versions: 1 2 3 4 5 6 7 8 9 10 11 12 13 14 15 16
721
FTUS46 KSEW 300727 AAA
TAFPAE
TAF AMD
KPAE 300727Z 3007/3106 19005KT P6SM SKC
     FM301000 24004KT P6SM OVC009
     FM302100 21007KT P6SM VCSH OVC018=

USA.gov is the U.S. government's official web portal to all federal, state and local government web resources and services.